Skip Navigation Links
NOAA logo - Click to go to the NOAA homepage
NOAA's National Weather Service
Alaska Aviation Weather Unit
  NWS logo - Click to go to the NWS homepage
Left Navbar Graphic     00 AKDT = 08 GMT

   
NOAA is celebrating 200 years of science, service, and stewardship. Visit the NOAA 200th celebration Web site to learn more.
USA.gov is the U.S. Government's official Web portal to all Federal, state and local government Web resources and services.
Facebook
NWS on Facebook

Important Change Regarding the AAWU Web Presence

 

Over the last several months, the AAWU has been working to navigate its webpages to a nationally supported server. Security, as well as other needs, have necessitated the change.  We have been given an extension for the site changeover while we diligently work at addressing feedback received. As of July 14, 2017, aawu.arh.noaa.gov will be discontinued. The new AAWU web address is weather.gov/aawu. It is now live and will run in-parallel with the old site until it is discontinued on July 14, 2017. Please continue to send any feedback or questions regarding the new webpages to nws.ar.aawu.webauthors@noaa.gov.  Thank you for your patience during this time of transition.
AAWU Home :: Display TAF Add Bookmark
TAF PAED 101900Z 1019/1201 VRB06KT 9000 -SHRA FEW010 OVC070
      QNH2993INS
      BECMG 1020/1021 VRB06KT 9999 VCSH SCT050 BKN070 QNH2986INS
      BECMG 1102/1103 VRB06KT 9999 NSW SCT040 BKN120 QNH2964INS
      TX18/1100Z TN12/1112Z=

METAR PAED 240256Z AUTO 17003KT 10SM FEW005 SCT100 BKN130 10/10 A2946= PAED 240346Z 22003KT 10SM BKN005 OVC120 10/10 A2946= METAR PAED 240356Z 00000KT 10SM BKN005 10/10 A2945= PAED 240426Z 00000KT 10SM BKN003 OVC120 10/10 A2945= METAR PAED 240456Z 00000KT 10SM BKN001 OVC005 09/09 A2945= PAED 240506Z 00000KT 10SM BKN003 BKN075 OVC150 09/09 A2945= PAED 240516Z 00000KT 3SM BR BKN003 BKN075 BKN150 09/09 A2945= PAED 240521Z 00000KT 1 1/4SM R06/3000FT BR BKN003 BKN075 BKN150 09/09 A2945= PAED 240526Z 00000KT 3SM R06/5000FT BR BKN003 BKN075 OVC150 09/09 A2945= PAED 240551Z 00000KT 3SM BR BKN002 OVC140 09/09 A2944= METAR PAED 240556Z 08003KT 4SM BR BKN003 09/09 A2944= PAED 240606Z 00000KT 3SM BR OVC002 09/09 A2944= PAED 240626Z 00000KT 3SM BR OVC003 09/09 A2944= PAED 240644Z 00000KT 1/2SM R06/4500FT FG OVC002 09/09 A2943= METAR PAED 240656Z 00000KT 1/2SM R06/1600V2200FT FG VV002 09/09 A2944= PAED 240711Z 00000KT 3/8SM R06/1200V1800FT FG VV002 09/09 A2944= PAED 240731Z 00000KT 3/8SM R06/1200V1600FT FG OVC002 09/09 A2944= PAED 240741Z 00000KT 3/8SM R06/1400V1600FT FG BKN004 OVC070 09/09 A2944= PAED 240751Z AUTO 00000KT 1/2SM R06/1600V2200FT FG SCT003 BKN070 OVC130 09/09 A2944= METAR PAED 240756Z AUTO 00000KT 3/4SM R06/1800V2600FT BR SCT003 SCT070 OVC140 09/09 A2943= PAED 240801Z AUTO 00000KT 1 1/8SM R06/3000FT BR FEW002 FEW070 OVC140 09/09 A2943=
 Alaska TAF Map

NOAA's National Weather Service
Alaska Aviation Weather Unit
6930 Sand Lake Road
Anchorage, AK 99502-1845
Disclaimer
Credits
Glossary
Privacy Policy
About Us
Career Opportunities
Contact AAWU Internet Services Site last modified: April, 17th 2012